Terminal Aerodrome Forecast
Issued by NWS

Current Version | Previous Version | Text Only | Print | Product List | Glossary On
Versions: 1 2 3 4 5 6 7 8 9 10 11 12 13 14 15 16 17 18
000
FTUS45 KTFX 212300
TAFCTB
TAF
KCTB 212328Z 2200/2224 25012KT P6SM VCSH SCT030 OVC060
     FM220200 24012KT P6SM BKN090
     FM220700 22008KT P6SM SKC=

USA.gov is the U.S. government's official web portal to all federal, state and local government web resources and services.